sensor_id;sensor_type;location;lat;lon;timestamp;P1;durP1;ratioP1;P2;durP2;ratioP2
59846;SDS011;45728;48.788;2.302;2022-12-24T00:00:36;38.17;;;8.65;;
59846;SDS011;45728;48.788;2.302;2022-12-24T00:03:02;42.47;;;9.52;;
59846;SDS011;45728;48.788;2.302;2022-12-24T00:05:28;37.40;;;7.88;;
59846;SDS011;45728;48.788;2.302;2022-12-24T00:07:54;34.45;;;9.05;;
59846;SDS011;45728;48.788;2.302;2022-12-24T00:10:20;34.55;;;8.63;;
59846;SDS011;45728;48.788;2.302;2022-12-24T00:12:46;32.45;;;8.23;;
59846;SDS011;45728;48.788;2.302;2022-12-24T00:15:12;42.50;;;8.85;;
59846;SDS011;45728;48.788;2.302;2022-12-24T00:17:38;32.72;;;7.93;;
59846;SDS011;45728;48.788;2.302;2022-12-24T00:20:04;38.72;;;8.93;;
59846;SDS011;45728;48.788;2.302;2022-12-24T00:22:31;38.75;;;9.45;;
59846;SDS011;45728;48.788;2.302;2022-12-24T00:24:57;35.97;;;8.93;;
59846;SDS011;45728;48.788;2.302;2022-12-24T00:27:23;38.92;;;8.48;;
59846;SDS011;45728;48.788;2.302;2022-12-24T00:29:49;42.40;;;9.23;;
59846;SDS011;45728;48.788;2.302;2022-12-24T00:32:15;29.52;;;8.05;;
59846;SDS011;45728;48.788;2.302;2022-12-24T00:34:41;30.52;;;8.38;;
59846;SDS011;45728;48.788;2.302;2022-12-24T00:37:07;35.70;;;8.50;;
59846;SDS011;45728;48.788;2.302;2022-12-24T00:39:33;36.45;;;8.48;;
59846;SDS011;45728;48.788;2.302;2022-12-24T00:41:59;37.67;;;8.35;;
59846;SDS011;45728;48.788;2.302;2022-12-24T00:44:25;37.03;;;8.60;;
59846;SDS011;45728;48.788;2.302;2022-12-24T00:46:51;40.97;;;9.73;;
59846;SDS011;45728;48.788;2.302;2022-12-24T00:49:17;37.47;;;7.93;;
59846;SDS011;45728;48.788;2.302;2022-12-24T00:51:43;38.70;;;8.23;;
59846;SDS011;45728;48.788;2.302;2022-12-24T00:54:09;43.90;;;9.68;;
59846;SDS011;45728;48.788;2.302;2022-12-24T00:56:37;36.30;;;8.13;;
59846;SDS011;45728;48.788;2.302;2022-12-24T00:59:03;32.92;;;8.23;;
59846;SDS011;45728;48.788;2.302;2022-12-24T01:01:29;42.55;;;9.68;;
59846;SDS011;45728;48.788;2.302;2022-12-24T01:03:55;32.50;;;8.32;;
59846;SDS011;45728;48.788;2.302;2022-12-24T01:06:41;33.05;;;7.63;;
59846;SDS011;45728;48.788;2.302;2022-12-24T01:09:07;40.85;;;9.27;;
59846;SDS011;45728;48.788;2.302;2022-12-24T01:11:34;41.45;;;8.55;;
59846;SDS011;45728;48.788;2.302;2022-12-24T01:14:00;35.97;;;8.57;;
59846;SDS011;45728;48.788;2.302;2022-12-24T01:16:26;37.65;;;7.85;;
59846;SDS011;45728;48.788;2.302;2022-12-24T01:18:52;34.75;;;8.70;;
59846;SDS011;45728;48.788;2.302;2022-12-24T01:21:18;38.33;;;8.80;;
59846;SDS011;45728;48.788;2.302;2022-12-24T01:23:44;37.92;;;8.40;;
59846;SDS011;45728;48.788;2.302;2022-12-24T01:26:10;38.90;;;9.45;;
59846;SDS011;45728;48.788;2.302;2022-12-24T01:28:36;39.03;;;9.27;;
59846;SDS011;45728;48.788;2.302;2022-12-24T01:31:09;30.88;;;7.47;;
59846;SDS011;45728;48.788;2.302;2022-12-24T01:33:36;40.03;;;9.35;;
59846;SDS011;45728;48.788;2.302;2022-12-24T01:36:02;41.58;;;9.32;;
59846;SDS011;45728;48.788;2.302;2022-12-24T01:38:28;35.97;;;7.95;;
59846;SDS011;45728;48.788;2.302;2022-12-24T01:40:55;36.53;;;8.70;;
59846;SDS011;45728;48.788;2.302;2022-12-24T01:43:39;44.42;;;9.18;;
59846;SDS011;45728;48.788;2.302;2022-12-24T01:46:06;39.72;;;9.27;;
59846;SDS011;45728;48.788;2.302;2022-12-24T01:48:37;43.20;;;9.48;;
59846;SDS011;45728;48.788;2.302;2022-12-24T01:53:42;35.33;;;9.45;;
59846;SDS011;45728;48.788;2.302;2022-12-24T01:56:12;38.90;;;9.68;;
59846;SDS011;45728;48.788;2.302;2022-12-24T01:58:39;40.17;;;8.13;;
59846;SDS011;45728;48.788;2.302;2022-12-24T02:01:08;38.15;;;9.25;;
59846;SDS011;45728;48.788;2.302;2022-12-24T02:03:34;34.13;;;9.00;;
59846;SDS011;45728;48.788;2.302;2022-12-24T02:06:00;41.42;;;9.43;;
59846;SDS011;45728;48.788;2.302;2022-12-24T02:08:26;46.33;;;10.43;;
59846;SDS011;45728;48.788;2.302;2022-12-24T02:13:45;36.88;;;8.77;;
59846;SDS011;45728;48.788;2.302;2022-12-24T02:21:51;38.63;;;8.45;;
59846;SDS011;45728;48.788;2.302;2022-12-24T02:27:07;41.90;;;9.15;;
59846;SDS011;45728;48.788;2.302;2022-12-24T02:35:29;40.30;;;10.18;;
59846;SDS011;45728;48.788;2.302;2022-12-24T02:38:07;35.97;;;8.85;;
59846;SDS011;45728;48.788;2.302;2022-12-24T02:40:45;41.40;;;8.45;;
59846;SDS011;45728;48.788;2.302;2022-12-24T02:43:30;40.25;;;9.13;;
59846;SDS011;45728;48.788;2.302;2022-12-24T02:46:05;36.20;;;9.13;;
59846;SDS011;45728;48.788;2.302;2022-12-24T02:48:34;38.78;;;9.35;;
59846;SDS011;45728;48.788;2.302;2022-12-24T02:51:04;38.42;;;9.23;;
59846;SDS011;45728;48.788;2.302;2022-12-24T02:53:32;33.53;;;8.70;;
59846;SDS011;45728;48.788;2.302;2022-12-24T03:04:13;38.20;;;8.38;;
59846;SDS011;45728;48.788;2.302;2022-12-24T03:07:06;37.17;;;9.43;;
59846;SDS011;45728;48.788;2.302;2022-12-24T03:12:31;44.42;;;8.80;;
59846;SDS011;45728;48.788;2.302;2022-12-24T03:15:00;39.58;;;8.75;;
59846;SDS011;45728;48.788;2.302;2022-12-24T03:17:29;36.22;;;9.57;;
59846;SDS011;45728;48.788;2.302;2022-12-24T03:19:59;47.00;;;9.43;;
59846;SDS011;45728;48.788;2.302;2022-12-24T03:22:25;47.28;;;10.05;;
59846;SDS011;45728;48.788;2.302;2022-12-24T03:24:51;37.15;;;8.55;;
59846;SDS011;45728;48.788;2.302;2022-12-24T03:27:17;41.63;;;8.93;;
59846;SDS011;45728;48.788;2.302;2022-12-24T03:29:44;36.33;;;8.40;;
59846;SDS011;45728;48.788;2.302;2022-12-24T03:32:11;46.50;;;9.98;;
59846;SDS011;45728;48.788;2.302;2022-12-24T03:34:37;31.67;;;8.65;;
59846;SDS011;45728;48.788;2.302;2022-12-24T03:37:03;40.08;;;8.73;;
59846;SDS011;45728;48.788;2.302;2022-12-24T03:39:29;32.25;;;8.45;;
59846;SDS011;45728;48.788;2.302;2022-12-24T03:41:55;41.00;;;9.45;;
59846;SDS011;45728;48.788;2.302;2022-12-24T03:44:21;40.47;;;10.45;;
59846;SDS011;45728;48.788;2.302;2022-12-24T03:46:47;41.78;;;9.98;;
59846;SDS011;45728;48.788;2.302;2022-12-24T03:49:13;43.70;;;9.02;;
59846;SDS011;45728;48.788;2.302;2022-12-24T03:51:39;38.03;;;8.60;;
59846;SDS011;45728;48.788;2.302;2022-12-24T03:54:06;37.38;;;8.52;;
59846;SDS011;45728;48.788;2.302;2022-12-24T03:56:32;41.65;;;9.50;;
59846;SDS011;45728;48.788;2.302;2022-12-24T03:58:58;38.97;;;9.18;;
59846;SDS011;45728;48.788;2.302;2022-12-24T04:01:24;37.40;;;8.20;;
59846;SDS011;45728;48.788;2.302;2022-12-24T04:03:50;51.85;;;10.60;;
59846;SDS011;45728;48.788;2.302;2022-12-24T04:06:16;41.75;;;9.40;;
59846;SDS011;45728;48.788;2.302;2022-12-24T04:08:42;36.00;;;9.00;;
59846;SDS011;45728;48.788;2.302;2022-12-24T04:11:09;39.28;;;8.40;;
59846;SDS011;45728;48.788;2.302;2022-12-24T04:13:37;45.97;;;9.97;;
59846;SDS011;45728;48.788;2.302;2022-12-24T04:16:04;40.80;;;9.30;;
59846;SDS011;45728;48.788;2.302;2022-12-24T04:18:32;44.15;;;9.90;;
59846;SDS011;45728;48.788;2.302;2022-12-24T04:20:59;38.40;;;10.07;;
59846;SDS011;45728;48.788;2.302;2022-12-24T04:23:25;39.85;;;9.82;;
59846;SDS011;45728;48.788;2.302;2022-12-24T04:25:54;46.67;;;9.37;;
59846;SDS011;45728;48.788;2.302;2022-12-24T04:28:20;48.75;;;10.00;;
59846;SDS011;45728;48.788;2.302;2022-12-24T04:30:46;33.55;;;8.43;;
59846;SDS011;45728;48.788;2.302;2022-12-24T04:33:12;34.17;;;7.97;;
59846;SDS011;45728;48.788;2.302;2022-12-24T04:35:39;37.67;;;9.00;;
59846;SDS011;45728;48.788;2.302;2022-12-24T04:38:08;42.50;;;10.18;;
59846;SDS011;45728;48.788;2.302;2022-12-24T04:40:35;35.40;;;8.88;;
59846;SDS011;45728;48.788;2.302;2022-12-24T04:43:01;42.65;;;9.68;;
59846;SDS011;45728;48.788;2.302;2022-12-24T04:45:27;49.92;;;10.25;;
59846;SDS011;45728;48.788;2.302;2022-12-24T04:47:53;37.40;;;9.15;;
59846;SDS011;45728;48.788;2.302;2022-12-24T04:50:19;44.00;;;10.60;;
59846;SDS011;45728;48.788;2.302;2022-12-24T04:52:45;40.97;;;9.57;;
59846;SDS011;45728;48.788;2.302;2022-12-24T04:55:11;35.97;;;8.77;;
59846;SDS011;45728;48.788;2.302;2022-12-24T04:57:37;41.80;;;9.13;;
59846;SDS011;45728;48.788;2.302;2022-12-24T05:00:04;36.63;;;8.65;;
59846;SDS011;45728;48.788;2.302;2022-12-24T05:02:31;41.10;;;9.73;;
59846;SDS011;45728;48.788;2.302;2022-12-24T05:04:57;35.25;;;8.82;;
59846;SDS011;45728;48.788;2.302;2022-12-24T05:07:23;41.08;;;8.95;;
59846;SDS011;45728;48.788;2.302;2022-12-24T05:09:49;44.17;;;10.05;;
59846;SDS011;45728;48.788;2.302;2022-12-24T05:12:15;43.13;;;9.88;;
59846;SDS011;45728;48.788;2.302;2022-12-24T05:14:42;38.22;;;9.35;;
59846;SDS011;45728;48.788;2.302;2022-12-24T05:17:08;37.58;;;9.70;;
59846;SDS011;45728;48.788;2.302;2022-12-24T05:19:34;38.67;;;9.52;;
59846;SDS011;45728;48.788;2.302;2022-12-24T05:22:00;42.20;;;9.35;;
59846;SDS011;45728;48.788;2.302;2022-12-24T05:24:44;51.00;;;10.07;;
59846;SDS011;45728;48.788;2.302;2022-12-24T05:27:29;44.45;;;9.38;;
59846;SDS011;45728;48.788;2.302;2022-12-24T05:29:55;43.90;;;9.70;;
59846;SDS011;45728;48.788;2.302;2022-12-24T05:32:21;40.75;;;10.38;;
59846;SDS011;45728;48.788;2.302;2022-12-24T05:34:47;45.90;;;9.80;;
59846;SDS011;45728;48.788;2.302;2022-12-24T05:37:13;43.33;;;9.60;;
59846;SDS011;45728;48.788;2.302;2022-12-24T05:39:40;40.50;;;9.52;;
59846;SDS011;45728;48.788;2.302;2022-12-24T05:42:06;43.28;;;9.52;;
59846;SDS011;45728;48.788;2.302;2022-12-24T05:44:32;37.67;;;9.77;;
59846;SDS011;45728;48.788;2.302;2022-12-24T05:46:58;43.63;;;9.13;;
59846;SDS011;45728;48.788;2.302;2022-12-24T05:49:24;44.55;;;9.70;;
59846;SDS011;45728;48.788;2.302;2022-12-24T05:51:50;40.80;;;9.45;;
59846;SDS011;45728;48.788;2.302;2022-12-24T05:54:16;45.10;;;9.77;;
59846;SDS011;45728;48.788;2.302;2022-12-24T05:56:42;42.50;;;9.88;;
59846;SDS011;45728;48.788;2.302;2022-12-24T05:59:08;37.55;;;9.18;;
59846;SDS011;45728;48.788;2.302;2022-12-24T06:01:34;43.30;;;9.75;;
59846;SDS011;45728;48.788;2.302;2022-12-24T06:04:00;40.03;;;10.13;;
59846;SDS011;45728;48.788;2.302;2022-12-24T06:06:26;45.00;;;9.90;;
59846;SDS011;45728;48.788;2.302;2022-12-24T06:08:53;41.92;;;9.20;;
59846;SDS011;45728;48.788;2.302;2022-12-24T06:11:21;36.88;;;8.48;;
59846;SDS011;45728;48.788;2.302;2022-12-24T06:13:49;38.42;;;8.80;;
59846;SDS011;45728;48.788;2.302;2022-12-24T06:16:17;37.45;;;8.30;;
59846;SDS011;45728;48.788;2.302;2022-12-24T06:18:44;33.58;;;7.38;;
59846;SDS011;45728;48.788;2.302;2022-12-24T06:21:11;40.97;;;8.60;;
59846;SDS011;45728;48.788;2.302;2022-12-24T06:23:38;35.40;;;8.75;;
59846;SDS011;45728;48.788;2.302;2022-12-24T06:26:06;26.80;;;7.57;;
59846;SDS011;45728;48.788;2.302;2022-12-24T06:28:34;35.42;;;8.85;;
59846;SDS011;45728;48.788;2.302;2022-12-24T06:31:02;30.83;;;7.65;;
59846;SDS011;45728;48.788;2.302;2022-12-24T06:33:30;33.63;;;8.25;;
59846;SDS011;45728;48.788;2.302;2022-12-24T06:35:57;27.88;;;7.10;;
59846;SDS011;45728;48.788;2.302;2022-12-24T06:38:23;34.80;;;6.57;;
59846;SDS011;45728;48.788;2.302;2022-12-24T06:40:49;24.98;;;6.15;;
59846;SDS011;45728;48.788;2.302;2022-12-24T06:43:16;25.92;;;6.32;;
59846;SDS011;45728;48.788;2.302;2022-12-24T06:45:45;25.58;;;5.95;;
59846;SDS011;45728;48.788;2.302;2022-12-24T06:48:12;25.33;;;5.32;;
59846;SDS011;45728;48.788;2.302;2022-12-24T06:50:40;28.45;;;5.68;;
59846;SDS011;45728;48.788;2.302;2022-12-24T06:53:06;32.55;;;6.90;;
59846;SDS011;45728;48.788;2.302;2022-12-24T06:55:32;26.17;;;5.57;;
59846;SDS011;45728;48.788;2.302;2022-12-24T06:57:59;25.52;;;6.18;;
59846;SDS011;45728;48.788;2.302;2022-12-24T07:00:25;26.33;;;5.45;;
59846;SDS011;45728;48.788;2.302;2022-12-24T07:02:51;26.80;;;5.88;;
59846;SDS011;45728;48.788;2.302;2022-12-24T07:05:17;21.42;;;5.32;;
59846;SDS011;45728;48.788;2.302;2022-12-24T07:07:43;24.08;;;5.28;;
59846;SDS011;45728;48.788;2.302;2022-12-24T07:10:10;23.33;;;5.28;;
59846;SDS011;45728;48.788;2.302;2022-12-24T07:12:38;18.95;;;4.60;;
59846;SDS011;45728;48.788;2.302;2022-12-24T07:15:05;20.92;;;5.03;;
59846;SDS011;45728;48.788;2.302;2022-12-24T07:17:31;17.20;;;4.50;;
59846;SDS011;45728;48.788;2.302;2022-12-24T07:19:58;14.75;;;4.15;;
59846;SDS011;45728;48.788;2.302;2022-12-24T07:22:24;23.55;;;4.78;;
59846;SDS011;45728;48.788;2.302;2022-12-24T07:24:50;23.10;;;4.68;;
59846;SDS011;45728;48.788;2.302;2022-12-24T07:27:16;18.60;;;5.05;;
59846;SDS011;45728;48.788;2.302;2022-12-24T07:29:42;28.00;;;6.22;;
59846;SDS011;45728;48.788;2.302;2022-12-24T07:32:08;18.55;;;4.38;;
59846;SDS011;45728;48.788;2.302;2022-12-24T07:34:34;22.02;;;4.65;;
59846;SDS011;45728;48.788;2.302;2022-12-24T07:37:00;19.27;;;4.80;;
59846;SDS011;45728;48.788;2.302;2022-12-24T07:39:27;24.60;;;4.65;;
59846;SDS011;45728;48.788;2.302;2022-12-24T07:41:53;18.50;;;4.60;;
59846;SDS011;45728;48.788;2.302;2022-12-24T07:44:19;19.85;;;4.88;;
59846;SDS011;45728;48.788;2.302;2022-12-24T07:46:45;22.33;;;4.40;;
59846;SDS011;45728;48.788;2.302;2022-12-24T07:49:11;19.85;;;4.35;;
59846;SDS011;45728;48.788;2.302;2022-12-24T07:51:37;18.17;;;4.55;;
59846;SDS011;45728;48.788;2.302;2022-12-24T07:54:03;18.10;;;3.92;;
59846;SDS011;45728;48.788;2.302;2022-12-24T07:56:30;15.73;;;4.05;;
59846;SDS011;45728;48.788;2.302;2022-12-24T07:58:56;20.58;;;4.63;;
59846;SDS011;45728;48.788;2.302;2022-12-24T08:01:22;15.35;;;4.55;;
59846;SDS011;45728;48.788;2.302;2022-12-24T08:03:48;19.73;;;4.25;;
59846;SDS011;45728;48.788;2.302;2022-12-24T08:06:21;19.05;;;4.35;;
59846;SDS011;45728;48.788;2.302;2022-12-24T08:08:48;18.65;;;4.45;;
59846;SDS011;45728;48.788;2.302;2022-12-24T08:11:14;20.42;;;4.72;;
59846;SDS011;45728;48.788;2.302;2022-12-24T08:13:40;18.63;;;4.70;;
59846;SDS011;45728;48.788;2.302;2022-12-24T08:16:06;19.67;;;5.10;;
59846;SDS011;45728;48.788;2.302;2022-12-24T08:18:32;16.35;;;4.45;;
59846;SDS011;45728;48.788;2.302;2022-12-24T08:20:58;17.70;;;4.82;;
59846;SDS011;45728;48.788;2.302;2022-12-24T08:23:24;19.80;;;4.93;;
59846;SDS011;45728;48.788;2.302;2022-12-24T08:25:50;21.27;;;4.88;;
59846;SDS011;45728;48.788;2.302;2022-12-24T08:28:17;19.95;;;4.22;;
59846;SDS011;45728;48.788;2.302;2022-12-24T08:30:46;20.92;;;4.13;;
59846;SDS011;45728;48.788;2.302;2022-12-24T08:33:14;18.77;;;4.28;;
59846;SDS011;45728;48.788;2.302;2022-12-24T08:35:40;17.45;;;4.25;;
59846;SDS011;45728;48.788;2.302;2022-12-24T08:38:12;19.65;;;4.90;;
59846;SDS011;45728;48.788;2.302;2022-12-24T08:40:38;16.58;;;4.95;;
59846;SDS011;45728;48.788;2.302;2022-12-24T08:43:04;17.90;;;4.15;;
59846;SDS011;45728;48.788;2.302;2022-12-24T08:45:30;17.48;;;4.18;;
59846;SDS011;45728;48.788;2.302;2022-12-24T08:47:57;13.25;;;3.47;;
59846;SDS011;45728;48.788;2.302;2022-12-24T08:50:24;13.60;;;3.30;;
59846;SDS011;45728;48.788;2.302;2022-12-24T08:52:52;15.23;;;3.80;;
59846;SDS011;45728;48.788;2.302;2022-12-24T08:55:19;18.02;;;4.72;;
59846;SDS011;45728;48.788;2.302;2022-12-24T08:57:45;16.40;;;3.92;;
59846;SDS011;45728;48.788;2.302;2022-12-24T09:00:11;23.83;;;4.53;;
59846;SDS011;45728;48.788;2.302;2022-12-24T09:02:38;20.08;;;4.05;;
59846;SDS011;45728;48.788;2.302;2022-12-24T09:05:04;15.23;;;3.78;;
59846;SDS011;45728;48.788;2.302;2022-12-24T09:07:30;22.13;;;3.97;;
59846;SDS011;45728;48.788;2.302;2022-12-24T09:09:56;16.90;;;3.67;;
59846;SDS011;45728;48.788;2.302;2022-12-24T09:12:22;17.92;;;3.60;;
59846;SDS011;45728;48.788;2.302;2022-12-24T09:14:51;14.98;;;3.58;;
59846;SDS011;45728;48.788;2.302;2022-12-24T09:17:19;14.05;;;3.85;;
59846;SDS011;45728;48.788;2.302;2022-12-24T09:19:45;15.15;;;3.60;;
59846;SDS011;45728;48.788;2.302;2022-12-24T09:22:12;15.07;;;3.97;;
59846;SDS011;45728;48.788;2.302;2022-12-24T09:24:39;16.48;;;3.95;;
59846;SDS011;45728;48.788;2.302;2022-12-24T09:27:05;14.70;;;3.97;;
59846;SDS011;45728;48.788;2.302;2022-12-24T09:29:31;19.90;;;3.70;;
59846;SDS011;45728;48.788;2.302;2022-12-24T09:31:57;17.35;;;3.97;;
59846;SDS011;45728;48.788;2.302;2022-12-24T09:34:24;19.70;;;3.65;;
59846;SDS011;45728;48.788;2.302;2022-12-24T09:36:50;15.73;;;3.95;;
59846;SDS011;45728;48.788;2.302;2022-12-24T09:39:18;14.93;;;3.63;;
59846;SDS011;45728;48.788;2.302;2022-12-24T09:46:46;17.67;;;4.28;;
59846;SDS011;45728;48.788;2.302;2022-12-24T09:49:14;23.02;;;3.97;;
59846;SDS011;45728;48.788;2.302;2022-12-24T09:51:45;22.75;;;3.95;;
59846;SDS011;45728;48.788;2.302;2022-12-24T09:54:24;15.65;;;3.63;;
59846;SDS011;45728;48.788;2.302;2022-12-24T09:57:04;13.13;;;3.72;;
59846;SDS011;45728;48.788;2.302;2022-12-24T09:59:41;9.90;;;3.50;;
59846;SDS011;45728;48.788;2.302;2022-12-24T10:02:10;15.57;;;3.42;;
59846;SDS011;45728;48.788;2.302;2022-12-24T10:04:41;18.45;;;3.55;;
59846;SDS011;45728;48.788;2.302;2022-12-24T10:10:05;15.57;;;3.72;;
59846;SDS011;45728;48.788;2.302;2022-12-24T10:15:14;14.32;;;3.55;;
59846;SDS011;45728;48.788;2.302;2022-12-24T10:26:06;14.00;;;3.47;;
59846;SDS011;45728;48.788;2.302;2022-12-24T10:28:57;18.80;;;4.20;;
59846;SDS011;45728;48.788;2.302;2022-12-24T10:31:31;15.95;;;3.35;;
59846;SDS011;45728;48.788;2.302;2022-12-24T10:34:06;14.98;;;3.58;;
59846;SDS011;45728;48.788;2.302;2022-12-24T10:36:41;17.63;;;3.88;;
59846;SDS011;45728;48.788;2.302;2022-12-24T10:39:16;14.15;;;3.72;;
59846;SDS011;45728;48.788;2.302;2022-12-24T10:41:49;16.75;;;3.45;;
59846;SDS011;45728;48.788;2.302;2022-12-24T10:44:19;14.70;;;3.70;;
59846;SDS011;45728;48.788;2.302;2022-12-24T10:46:48;18.00;;;3.50;;
59846;SDS011;45728;48.788;2.302;2022-12-24T10:49:15;10.13;;;2.95;;
59846;SDS011;45728;48.788;2.302;2022-12-24T10:51:52;13.43;;;3.63;;
59846;SDS011;45728;48.788;2.302;2022-12-24T10:54:23;11.60;;;3.45;;
59846;SDS011;45728;48.788;2.302;2022-12-24T10:56:56;11.45;;;3.00;;
59846;SDS011;45728;48.788;2.302;2022-12-24T11:01:55;12.80;;;3.17;;
59846;SDS011;45728;48.788;2.302;2022-12-24T11:04:24;16.75;;;3.08;;
59846;SDS011;45728;48.788;2.302;2022-12-24T11:07:02;11.45;;;3.08;;
59846;SDS011;45728;48.788;2.302;2022-12-24T11:09:33;14.77;;;3.10;;
59846;SDS011;45728;48.788;2.302;2022-12-24T11:12:16;12.70;;;3.38;;
59846;SDS011;45728;48.788;2.302;2022-12-24T11:14:58;15.90;;;3.35;;
59846;SDS011;45728;48.788;2.302;2022-12-24T11:17:56;9.57;;;2.45;;
59846;SDS011;45728;48.788;2.302;2022-12-24T11:20:29;12.50;;;3.15;;
59846;SDS011;45728;48.788;2.302;2022-12-24T11:23:00;12.45;;;3.20;;
59846;SDS011;45728;48.788;2.302;2022-12-24T11:25:27;13.52;;;3.35;;
59846;SDS011;45728;48.788;2.302;2022-12-24T11:31:05;13.70;;;3.10;;
59846;SDS011;45728;48.788;2.302;2022-12-24T11:33:51;11.00;;;3.22;;
59846;SDS011;45728;48.788;2.302;2022-12-24T11:36:19;10.75;;;2.65;;
59846;SDS011;45728;48.788;2.302;2022-12-24T11:38:57;15.82;;;3.47;;
59846;SDS011;45728;48.788;2.302;2022-12-24T11:41:24;12.95;;;3.13;;
59846;SDS011;45728;48.788;2.302;2022-12-24T11:43:51;10.48;;;2.47;;
59846;SDS011;45728;48.788;2.302;2022-12-24T11:46:41;14.52;;;3.42;;
59846;SDS011;45728;48.788;2.302;2022-12-24T11:51:37;13.18;;;2.90;;
59846;SDS011;45728;48.788;2.302;2022-12-24T11:54:08;12.43;;;3.80;;
59846;SDS011;45728;48.788;2.302;2022-12-24T11:56:44;15.13;;;2.90;;
59846;SDS011;45728;48.788;2.302;2022-12-24T11:59:15;12.77;;;3.38;;
59846;SDS011;45728;48.788;2.302;2022-12-24T12:04:42;12.52;;;3.30;;
59846;SDS011;45728;48.788;2.302;2022-12-24T12:09:44;11.48;;;3.17;;
59846;SDS011;45728;48.788;2.302;2022-12-24T12:12:20;13.40;;;3.67;;
59846;SDS011;45728;48.788;2.302;2022-12-24T12:17:43;12.63;;;3.00;;
59846;SDS011;45728;48.788;2.302;2022-12-24T12:28:14;17.38;;;3.45;;
59846;SDS011;45728;48.788;2.302;2022-12-24T12:30:54;15.20;;;3.50;;
59846;SDS011;45728;48.788;2.302;2022-12-24T12:33:30;12.07;;;3.70;;
59846;SDS011;45728;48.788;2.302;2022-12-24T12:36:04;12.23;;;3.25;;
59846;SDS011;45728;48.788;2.302;2022-12-24T12:38:33;11.93;;;3.20;;
59846;SDS011;45728;48.788;2.302;2022-12-24T12:49:40;15.77;;;3.65;;
59846;SDS011;45728;48.788;2.302;2022-12-24T12:57:55;11.38;;;3.47;;
59846;SDS011;45728;48.788;2.302;2022-12-24T13:00:28;9.23;;;2.85;;
59846;SDS011;45728;48.788;2.302;2022-12-24T13:03:00;10.27;;;3.42;;
59846;SDS011;45728;48.788;2.302;2022-12-24T13:08:46;15.95;;;3.80;;
59846;SDS011;45728;48.788;2.302;2022-12-24T13:11:46;8.88;;;2.90;;
59846;SDS011;45728;48.788;2.302;2022-12-24T13:17:09;11.55;;;3.47;;
59846;SDS011;45728;48.788;2.302;2022-12-24T13:23:11;13.75;;;3.65;;
59846;SDS011;45728;48.788;2.302;2022-12-24T13:25:41;13.73;;;3.55;;
59846;SDS011;45728;48.788;2.302;2022-12-24T13:31:01;14.40;;;3.63;;
59846;SDS011;45728;48.788;2.302;2022-12-24T13:36:08;18.48;;;4.28;;
59846;SDS011;45728;48.788;2.302;2022-12-24T13:38:51;10.63;;;3.70;;
59846;SDS011;45728;48.788;2.302;2022-12-24T13:44:01;13.10;;;3.35;;
59846;SDS011;45728;48.788;2.302;2022-12-24T13:49:35;12.55;;;3.45;;
59846;SDS011;45728;48.788;2.302;2022-12-24T13:52:18;16.17;;;3.90;;
59846;SDS011;45728;48.788;2.302;2022-12-24T14:02:59;11.15;;;3.58;;
59846;SDS011;45728;48.788;2.302;2022-12-24T14:05:33;11.88;;;3.85;;
59846;SDS011;45728;48.788;2.302;2022-12-24T14:11:09;12.73;;;3.90;;
59846;SDS011;45728;48.788;2.302;2022-12-24T14:16:07;8.82;;;3.13;;
59846;SDS011;45728;48.788;2.302;2022-12-24T14:18:45;11.52;;;4.15;;
59846;SDS011;45728;48.788;2.302;2022-12-24T14:21:36;8.68;;;3.45;;
59846;SDS011;45728;48.788;2.302;2022-12-24T14:27:11;11.25;;;3.50;;
59846;SDS011;45728;48.788;2.302;2022-12-24T14:29:50;15.63;;;3.63;;
59846;SDS011;45728;48.788;2.302;2022-12-24T14:32:17;9.25;;;3.80;;
59846;SDS011;45728;48.788;2.302;2022-12-24T14:34:43;10.52;;;3.53;;
59846;SDS011;45728;48.788;2.302;2022-12-24T14:37:10;10.50;;;3.55;;
59846;SDS011;45728;48.788;2.302;2022-12-24T14:39:43;10.68;;;3.33;;
59846;SDS011;45728;48.788;2.302;2022-12-24T14:45:05;11.05;;;3.80;;
59846;SDS011;45728;48.788;2.302;2022-12-24T14:56:12;8.95;;;3.30;;
59846;SDS011;45728;48.788;2.302;2022-12-24T14:58:40;17.00;;;4.57;;
59846;SDS011;45728;48.788;2.302;2022-12-24T15:01:27;10.35;;;3.50;;
59846;SDS011;45728;48.788;2.302;2022-12-24T15:04:02;14.00;;;4.68;;
59846;SDS011;45728;48.788;2.302;2022-12-24T15:06:39;11.20;;;3.60;;
59846;SDS011;45728;48.788;2.302;2022-12-24T15:11:53;12.88;;;4.47;;
59846;SDS011;45728;48.788;2.302;2022-12-24T15:14:21;16.92;;;4.95;;
59846;SDS011;45728;48.788;2.302;2022-12-24T15:19:27;9.85;;;4.25;;
59846;SDS011;45728;48.788;2.302;2022-12-24T15:22:00;10.00;;;3.70;;
59846;SDS011;45728;48.788;2.302;2022-12-24T15:24:29;10.68;;;4.30;;
59846;SDS011;45728;48.788;2.302;2022-12-24T15:26:58;15.40;;;7.50;;
59846;SDS011;45728;48.788;2.302;2022-12-24T15:29:28;13.70;;;11.02;;
59846;SDS011;45728;48.788;2.302;2022-12-24T15:32:00;29.60;;;22.25;;
59846;SDS011;45728;48.788;2.302;2022-12-24T15:34:39;26.15;;;15.55;;
59846;SDS011;45728;48.788;2.302;2022-12-24T15:42:26;15.50;;;8.65;;
59846;SDS011;45728;48.788;2.302;2022-12-24T15:45:00;15.68;;;5.68;;
59846;SDS011;45728;48.788;2.302;2022-12-24T15:47:30;22.80;;;13.02;;
59846;SDS011;45728;48.788;2.302;2022-12-24T15:50:17;21.02;;;11.10;;
59846;SDS011;45728;48.788;2.302;2022-12-24T15:52:49;20.60;;;10.27;;
59846;SDS011;45728;48.788;2.302;2022-12-24T15:55:26;12.77;;;4.72;;
59846;SDS011;45728;48.788;2.302;2022-12-24T15:57:58;14.00;;;4.95;;
59846;SDS011;45728;48.788;2.302;2022-12-24T16:00:25;14.85;;;6.35;;
59846;SDS011;45728;48.788;2.302;2022-12-24T16:03:29;10.38;;;5.10;;
59846;SDS011;45728;48.788;2.302;2022-12-24T16:05:57;14.52;;;5.35;;
59846;SDS011;45728;48.788;2.302;2022-12-24T16:08:24;13.13;;;5.28;;
59846;SDS011;45728;48.788;2.302;2022-12-24T16:13:37;20.52;;;10.55;;
59846;SDS011;45728;48.788;2.302;2022-12-24T16:16:13;17.08;;;9.23;;
59846;SDS011;45728;48.788;2.302;2022-12-24T16:21:25;12.95;;;5.50;;
59846;SDS011;45728;48.788;2.302;2022-12-24T16:24:03;12.55;;;4.55;;
59846;SDS011;45728;48.788;2.302;2022-12-24T16:26:33;14.15;;;6.05;;
59846;SDS011;45728;48.788;2.302;2022-12-24T16:28:59;15.23;;;5.10;;
59846;SDS011;45728;48.788;2.302;2022-12-24T16:31:35;14.80;;;5.32;;
59846;SDS011;45728;48.788;2.302;2022-12-24T16:34:09;12.68;;;5.15;;
59846;SDS011;45728;48.788;2.302;2022-12-24T16:36:40;13.15;;;4.82;;
59846;SDS011;45728;48.788;2.302;2022-12-24T16:41:51;11.60;;;6.63;;
59846;SDS011;45728;48.788;2.302;2022-12-24T16:44:37;18.02;;;6.78;;
59846;SDS011;45728;48.788;2.302;2022-12-24T16:49:44;14.57;;;6.70;;
59846;SDS011;45728;48.788;2.302;2022-12-24T16:52:15;20.15;;;9.35;;
59846;SDS011;45728;48.788;2.302;2022-12-24T16:54:47;18.67;;;8.70;;
59846;SDS011;45728;48.788;2.302;2022-12-24T16:57:13;21.23;;;8.27;;
59846;SDS011;45728;48.788;2.302;2022-12-24T16:59:39;13.40;;;5.72;;
59846;SDS011;45728;48.788;2.302;2022-12-24T17:02:05;14.55;;;7.50;;
59846;SDS011;45728;48.788;2.302;2022-12-24T17:04:34;14.05;;;7.85;;
59846;SDS011;45728;48.788;2.302;2022-12-24T17:07:00;17.75;;;7.93;;
59846;SDS011;45728;48.788;2.302;2022-12-24T17:09:26;12.68;;;7.15;;
59846;SDS011;45728;48.788;2.302;2022-12-24T17:11:52;17.40;;;7.90;;
59846;SDS011;45728;48.788;2.302;2022-12-24T17:14:18;15.43;;;8.27;;
59846;SDS011;45728;48.788;2.302;2022-12-24T17:16:44;15.70;;;8.23;;
59846;SDS011;45728;48.788;2.302;2022-12-24T17:19:10;19.60;;;9.07;;
59846;SDS011;45728;48.788;2.302;2022-12-24T17:21:36;26.25;;;14.68;;
59846;SDS011;45728;48.788;2.302;2022-12-24T17:24:02;23.83;;;13.02;;